Weather at Kilen Seaplane Base

Public forecast

Using degrees Celsius for public forecast. Weather courtesy of forecast.io.

Closest aviation weather report (METAR) to Kilen Seaplane Base

Closest report is Oslo Airport, Gardermoen, 23.5 nm (43.6 km) NE.

2024/05/27 22:50 (retrieved 21 minutes ago)

ENGM 272250Z 17008KT 9999 FEW013 BKN027 14/13 Q1015

Closest aviation forecast (TAF) to Kilen Seaplane Base

Closest forecast is Oslo Airport, Gardermoen, 23.5 nm (43.6 km) NE.

2024/05/27 19:00 Ammendment (retrieved 4 hours ago)

TAF AMD ENGM 271917Z 2719/2818 15008KT 9999 BKN012 TEMPO 2719/2807 SCT012 BECMG 2807/2809 SCT030 TEMPO 2812/2816 SCT030TCU TEMPO 2816/2818 04015G25KT 4000 TSRA BKN030CB